Time;durP1;ratioP1;P1;durP2;ratioP2;P2;SDS_P1;SDS_P2;PMS_P1;PMS_P2;Temp;Humidity;BMP_temperature;BMP_pressure;BME280_temperature;BME280_humidity;BME280_pressure;Samples;Min_cycle;Max_cycle;Signal;HPM_P1;HPM_P2
2022/03/06 00:01:27;;;;;;;;;;;2.40;67.20;;;;;;4982968;28;19934;-76
2022/03/06 00:03:53;;;;;;;;;;;2.40;67.20;;;;;;4981203;28;19936;-77
2022/03/06 00:06:20;;;;;;;;;;;2.40;67.30;;;;;;4983896;28;20442;-76
2022/03/06 00:08:47;;;;;;;;;;;2.30;67.50;;;;;;4984040;28;20045;-76
2022/03/06 00:11:14;;;;;;;;;;;2.30;67.50;;;;;;4982818;28;19929;-76
2022/03/06 00:13:41;;;;;;;;;;;2.30;67.70;;;;;;4982611;28;19968;-76
2022/03/06 00:16:08;;;;;;;;;;;2.30;67.80;;;;;;4983931;28;20554;-76
2022/03/06 00:18:37;;;;;;;;;;;2.30;67.70;;;;;;4980981;28;20492;-76
2022/03/06 00:21:03;;;;;;;;;;;2.30;67.70;;;;;;4983766;28;19934;-77
2022/03/06 00:23:30;;;;;;;;;;;2.20;67.60;;;;;;4984187;28;19930;-76
2022/03/06 00:25:56;;;;;;;;;;;2.20;67.60;;;;;;4983056;28;20462;-76
2022/03/06 00:28:23;;;;;;;;;;;2.20;67.50;;;;;;4983440;28;19930;-76
2022/03/06 00:30:51;;;;;;;;;;;2.20;67.80;;;;;;4983219;28;19934;-76
2022/03/06 00:33:17;;;;;;;;;;;2.10;67.80;;;;;;4977484;28;20657;-76
2022/03/06 00:35:44;;;;;;;;;;;2.20;67.90;;;;;;4984292;28;20381;-75
2022/03/06 00:38:11;;;;;;;;;;;2.10;68.00;;;;;;4983788;28;19937;-76
2022/03/06 00:40:37;;;;;;;;;;;2.10;68.00;;;;;;4983747;28;19929;-76
2022/03/06 00:43:04;;;;;;;;;;;2.10;68.20;;;;;;4980692;28;19941;-77
2022/03/06 00:45:31;;;;;;;;;;;2.10;68.00;;;;;;4987772;28;19937;-76
2022/03/06 00:47:58;;;;;;;;;;;2.10;68.00;;;;;;4981722;28;19938;-75
2022/03/06 00:50:25;;;;;;;;;;;2.00;68.00;;;;;;4987529;28;19934;-76
2022/03/06 00:52:52;;;;;;;;;;;2.00;68.30;;;;;;4986668;28;19941;-76
2022/03/06 00:55:19;;;;;;;;;;;2.00;68.40;;;;;;4987468;28;19934;-77
2022/03/06 00:57:45;;;;;;;;;;;2.00;68.00;;;;;;4982027;28;21173;-76
2022/03/06 01:00:12;;;;;;;;;;;2.00;68.30;;;;;;4987585;28;19930;-76
2022/03/06 01:02:39;;;;;;;;;;;2.00;68.40;;;;;;4986096;28;19929;-75
2022/03/06 01:05:07;;;;;;;;;;;1.90;68.50;;;;;;4986948;28;20429;-76
2022/03/06 01:07:34;;;;;;;;;;;1.90;68.70;;;;;;4987332;28;19936;-76
2022/03/06 01:10:00;;;;;;;;;;;1.90;68.90;;;;;;4985716;28;19937;-76
2022/03/06 01:12:27;;;;;;;;;;;1.90;68.70;;;;;;4986137;28;20329;-76
2022/03/06 01:14:54;;;;;;;;;;;1.90;68.80;;;;;;4986959;28;19929;-75
2022/03/06 01:17:20;;;;;;;;;;;1.80;68.90;;;;;;4983619;28;20010;-76
2022/03/06 01:19:47;;;;;;;;;;;1.80;68.80;;;;;;4986822;28;19934;-76
2022/03/06 01:22:15;;;;;;;;;;;1.80;68.90;;;;;;4985974;28;19984;-76
2022/03/06 01:24:42;;;;;;;;;;;1.80;69.10;;;;;;4984832;28;19937;-76
2022/03/06 01:27:09;;;;;;;;;;;1.80;69.10;;;;;;4985351;28;19936;-76
2022/03/06 01:29:35;;;;;;;;;;;1.70;68.90;;;;;;4987120;28;19930;-75
2022/03/06 01:32:02;;;;;;;;;;;1.70;68.90;;;;;;4984196;28;19930;-77
2022/03/06 01:34:28;;;;;;;;;;;1.70;69.10;;;;;;4987392;28;19932;-76
2022/03/06 01:36:55;;;;;;;;;;;1.70;69.40;;;;;;4981905;28;19929;-76
2022/03/06 01:39:23;;;;;;;;;;;1.70;69.20;;;;;;4985786;28;19941;-76
2022/03/06 01:41:49;;;;;;;;;;;1.60;69.20;;;;;;4984476;28;19934;-77
2022/03/06 01:44:16;;;;;;;;;;;1.60;69.40;;;;;;4987973;28;19929;-76
2022/03/06 01:46:45;;;;;;;;;;;1.60;69.20;;;;;;4985126;28;20005;-76
2022/03/06 01:49:12;;;;;;;;;;;1.60;69.40;;;;;;4982790;28;19937;-76
2022/03/06 01:51:38;;;;;;;;;;;1.60;69.40;;;;;;4986077;28;19930;-75
2022/03/06 01:54:05;;;;;;;;;;;1.60;69.60;;;;;;4985361;28;19980;-76
2022/03/06 01:56:33;;;;;;;;;;;1.60;69.50;;;;;;4983421;28;19934;-76
2022/03/06 01:59:01;;;;;;;;;;;1.50;69.50;;;;;;4985941;28;19937;-77
2022/03/06 02:01:27;;;;;;;;;;;1.50;69.60;;;;;;4985684;28;19940;-76
2022/03/06 02:03:54;;;;;;;;;;;1.50;69.50;;;;;;4984818;28;20466;-76
2022/03/06 02:06:20;;;;;;;;;;;1.50;69.60;;;;;;4986380;28;20512;-77
2022/03/06 02:08:48;;;;;;;;;;;1.50;69.70;;;;;;4986182;28;19934;-76
2022/03/06 02:11:15;;;;;;;;;;;1.50;69.60;;;;;;4983854;28;19929;-76
2022/03/06 02:13:44;;;;;;;;;;;1.50;69.60;;;;;;4985244;28;19937;-76
2022/03/06 02:16:10;;;;;;;;;;;1.50;69.50;;;;;;4985790;28;19941;-76
2022/03/06 02:18:37;;;;;;;;;;;1.50;69.50;;;;;;4983630;28;19937;-77
2022/03/06 02:21:09;;;;;;;;;;;1.40;69.60;;;;;;4985517;28;19929;-78
2022/03/06 02:23:35;;;;;;;;;;;1.40;69.70;;;;;;4984280;28;19929;-77
2022/03/06 02:26:02;;;;;;;;;;;1.40;69.70;;;;;;4980706;28;19930;-77
2022/03/06 02:28:29;;;;;;;;;;;1.40;69.80;;;;;;4984555;28;19930;-75
2022/03/06 02:30:56;;;;;;;;;;;1.40;69.90;;;;;;4984139;28;19930;-67
2022/03/06 02:33:23;;;;;;;;;;;1.40;69.80;;;;;;4985866;28;20619;-68
2022/03/06 02:35:50;;;;;;;;;;;1.40;70.00;;;;;;4979789;28;19937;-68
2022/03/06 02:38:18;;;;;;;;;;;1.40;70.10;;;;;;4982607;28;20357;-68
2022/03/06 02:40:44;;;;;;;;;;;1.40;70.80;;;;;;4983179;28;20198;-69
2022/03/06 02:43:11;;;;;;;;;;;1.40;70.10;;;;;;4983593;28;20396;-68
2022/03/06 02:45:40;;;;;;;;;;;1.40;70.20;;;;;;4981792;28;20421;-68
2022/03/06 02:48:07;;;;;;;;;;;1.40;70.30;;;;;;4983428;28;19933;-68
2022/03/06 02:50:35;;;;;;;;;;;1.30;70.40;;;;;;4985676;28;19930;-68
2022/03/06 02:53:02;;;;;;;;;;;1.30;70.40;;;;;;4984040;28;19930;-68
2022/03/06 02:55:31;;;;;;;;;;;1.30;70.30;;;;;;4986720;28;19930;-68
2022/03/06 02:57:57;;;;;;;;;;;1.30;70.40;;;;;;4981230;28;19941;-68
2022/03/06 03:00:25;;;;;;;;;;;1.30;70.40;;;;;;4988550;28;20413;-68
2022/03/06 03:02:52;;;;;;;;;;;1.30;70.50;;;;;;4983251;28;19930;-67
2022/03/06 03:05:20;;;;;;;;;;;1.30;70.50;;;;;;4985455;28;19938;-68
2022/03/06 03:07:48;;;;;;;;;;;1.20;70.50;;;;;;4985216;28;20009;-69
2022/03/06 03:10:15;;;;;;;;;;;1.20;70.50;;;;;;4985576;28;20044;-67
2022/03/06 03:12:43;;;;;;;;;;;1.20;70.50;;;;;;4984136;28;19937;-67
2022/03/06 03:15:10;;;;;;;;;;;1.20;70.60;;;;;;4984299;28;20394;-67
2022/03/06 03:17:37;;;;;;;;;;;1.20;70.60;;;;;;4981001;28;19937;-68
2022/03/06 03:20:04;;;;;;;;;;;1.20;70.70;;;;;;4983001;28;19933;-68
2022/03/06 03:22:31;;;;;;;;;;;1.20;70.90;;;;;;4985426;28;20038;-68
2022/03/06 03:24:57;;;;;;;;;;;1.20;71.00;;;;;;4984730;28;19940;-68
2022/03/06 03:27:24;;;;;;;;;;;1.10;71.00;;;;;;4986367;28;20428;-68
2022/03/06 03:29:52;;;;;;;;;;;1.20;71.00;;;;;;4985620;28;19937;-68
2022/03/06 03:32:19;;;;;;;;;;;1.10;71.00;;;;;;4982002;28;19937;-68
2022/03/06 03:34:45;;;;;;;;;;;1.10;71.10;;;;;;4985286;28;19933;-67
2022/03/06 03:37:12;;;;;;;;;;;1.10;71.20;;;;;;4985430;28;20588;-68
2022/03/06 03:39:38;;;;;;;;;;;1.10;71.30;;;;;;4981190;28;19929;-68
2022/03/06 03:42:05;;;;;;;;;;;1.10;71.30;;;;;;4979655;28;19930;-68
2022/03/06 03:44:31;;;;;;;;;;;1.10;71.30;;;;;;4985099;28;19929;-68
2022/03/06 03:46:59;;;;;;;;;;;1.00;71.20;;;;;;4984285;28;19957;-67
2022/03/06 03:49:26;;;;;;;;;;;1.00;71.20;;;;;;4980298;28;19930;-67
2022/03/06 03:51:52;;;;;;;;;;;1.00;71.30;;;;;;4985160;28;19934;-68
2022/03/06 03:54:19;;;;;;;;;;;1.00;71.40;;;;;;4985290;28;19930;-68
2022/03/06 03:56:46;;;;;;;;;;;1.00;71.40;;;;;;4985588;28;20389;-67
2022/03/06 03:59:12;;;;;;;;;;;1.00;71.50;;;;;;4985088;28;19936;-68
2022/03/06 04:01:39;;;;;;;;;;;1.00;71.50;;;;;;4984603;28;19930;-68
2022/03/06 04:04:06;;;;;;;;;;;1.00;71.60;;;;;;4982373;28;19933;-68
2022/03/06 04:06:33;;;;;;;;;;;0.90;71.60;;;;;;4985560;28;19936;-68
2022/03/06 04:09:00;;;;;;;;;;;0.90;71.60;;;;;;4984562;28;19941;-68
2022/03/06 04:11:26;;;;;;;;;;;0.90;71.60;;;;;;4985028;28;19939;-67
2022/03/06 04:13:53;;;;;;;;;;;0.90;71.70;;;;;;4983718;28;20413;-68
2022/03/06 04:16:19;;;;;;;;;;;0.90;71.70;;;;;;4985161;28;19929;-68
2022/03/06 04:18:46;;;;;;;;;;;0.90;71.80;;;;;;4985289;28;19937;-68
2022/03/06 04:21:14;;;;;;;;;;;0.90;71.80;;;;;;4988998;28;19937;-68
2022/03/06 04:23:40;;;;;;;;;;;0.90;71.80;;;;;;4988323;28;19941;-68
2022/03/06 04:26:07;;;;;;;;;;;0.90;71.80;;;;;;4981536;28;19934;-68
2022/03/06 04:28:33;;;;;;;;;;;0.90;71.90;;;;;;4988598;28;19934;-68
2022/03/06 04:31:00;;;;;;;;;;;0.80;72.00;;;;;;4986733;28;20493;-67
2022/03/06 04:33:26;;;;;;;;;;;0.80;72.00;;;;;;4987903;28;20327;-67
2022/03/06 04:35:53;;;;;;;;;;;0.80;71.90;;;;;;4988953;28;19936;-68
2022/03/06 04:38:21;;;;;;;;;;;0.80;71.90;;;;;;4988403;28;19936;-68
2022/03/06 04:40:47;;;;;;;;;;;0.70;72.10;;;;;;4987624;28;19930;-68
2022/03/06 04:43:14;;;;;;;;;;;0.70;72.10;;;;;;4986728;28;19940;-68
2022/03/06 04:45:41;;;;;;;;;;;0.70;72.20;;;;;;4988044;28;19930;-67
2022/03/06 04:48:07;;;;;;;;;;;0.70;72.20;;;;;;4986110;28;19937;-68
2022/03/06 04:50:34;;;;;;;;;;;0.70;72.20;;;;;;4988675;28;19937;-68
2022/03/06 04:53:00;;;;;;;;;;;0.70;72.30;;;;;;4986482;28;19938;-68
2022/03/06 04:55:28;;;;;;;;;;;0.70;72.30;;;;;;4987805;28;19930;-67
2022/03/06 04:57:55;;;;;;;;;;;0.70;72.30;;;;;;4986144;28;19937;-67
2022/03/06 05:00:22;;;;;;;;;;;0.70;72.30;;;;;;4991992;28;19930;-68
2022/03/06 05:02:48;;;;;;;;;;;0.70;72.30;;;;;;4986583;28;19929;-67
2022/03/06 05:05:15;;;;;;;;;;;0.60;72.10;;;;;;4988303;28;20373;-68
2022/03/06 05:07:41;;;;;;;;;;;0.60;72.30;;;;;;4988132;28;20302;-68
2022/03/06 05:10:10;;;;;;;;;;;0.60;72.30;;;;;;4987837;28;20481;-67
2022/03/06 05:12:38;;;;;;;;;;;0.60;72.30;;;;;;4985014;28;19981;-68
2022/03/06 05:15:06;;;;;;;;;;;0.60;72.30;;;;;;4987003;28;19930;-67
2022/03/06 05:17:32;;;;;;;;;;;0.60;72.50;;;;;;4987541;28;19930;-68
2022/03/06 05:19:59;;;;;;;;;;;0.60;72.50;;;;;;4987585;28;19934;-68
2022/03/06 05:22:25;;;;;;;;;;;0.50;72.60;;;;;;4987016;28;19937;-68
2022/03/06 05:24:52;;;;;;;;;;;0.50;72.50;;;;;;4986318;28;19929;-67
2022/03/06 05:27:18;;;;;;;;;;;0.50;72.50;;;;;;4987865;28;20597;-68
2022/03/06 05:29:46;;;;;;;;;;;0.50;72.60;;;;;;4987122;28;19938;-68
2022/03/06 05:32:13;;;;;;;;;;;0.50;72.60;;;;;;4984231;28;19933;-68
2022/03/06 05:34:39;;;;;;;;;;;0.50;72.70;;;;;;4987851;28;19930;-67
2022/03/06 05:37:06;;;;;;;;;;;0.50;72.70;;;;;;4986957;28;20386;-68
2022/03/06 05:39:33;;;;;;;;;;;0.50;72.80;;;;;;4987261;28;20322;-68
2022/03/06 05:41:59;;;;;;;;;;;0.50;72.60;;;;;;4984443;28;20390;-68
2022/03/06 05:44:26;;;;;;;;;;;0.50;72.60;;;;;;4988033;28;20454;-67
2022/03/06 05:46:54;;;;;;;;;;;0.50;72.60;;;;;;4986291;28;19952;-68
2022/03/06 05:49:20;;;;;;;;;;;0.50;72.70;;;;;;4985235;28;21506;-68
2022/03/06 05:51:47;;;;;;;;;;;0.40;72.70;;;;;;4986636;28;19937;-68
2022/03/06 05:54:13;;;;;;;;;;;0.40;73.40;;;;;;4987509;28;19937;-68
2022/03/06 05:56:40;;;;;;;;;;;0.50;72.80;;;;;;4986572;28;19930;-68
2022/03/06 05:59:07;;;;;;;;;;;0.50;72.80;;;;;;4990733;28;19976;-68
2022/03/06 06:01:33;;;;;;;;;;;0.40;73.60;;;;;;4985977;28;19966;-68
2022/03/06 06:04:02;;;;;;;;;;;0.40;72.80;;;;;;4985360;28;19937;-68
2022/03/06 06:06:28;;;;;;;;;;;0.40;72.90;;;;;;4986380;28;19973;-68
2022/03/06 06:08:55;;;;;;;;;;;0.40;72.90;;;;;;4986193;28;19956;-67
2022/03/06 06:11:22;;;;;;;;;;;0.40;72.80;;;;;;4983484;28;19929;-68
2022/03/06 06:13:49;;;;;;;;;;;0.40;72.90;;;;;;4986406;28;19933;-67
2022/03/06 06:16:15;;;;;;;;;;;0.50;73.00;;;;;;4986515;28;20017;-68
2022/03/06 06:18:42;;;;;;;;;;;0.40;72.80;;;;;;4985930;28;19944;-68
2022/03/06 06:21:10;;;;;;;;;;;0.50;73.00;;;;;;4986148;28;19929;-67
2022/03/06 06:23:37;;;;;;;;;;;0.50;73.00;;;;;;4986679;28;19934;-68
2022/03/06 06:26:03;;;;;;;;;;;0.40;73.00;;;;;;4979356;28;19984;-68
2022/03/06 06:28:30;;;;;;;;;;;0.50;73.10;;;;;;4986428;28;19929;-68
2022/03/06 06:30:56;;;;;;;;;;;0.40;73.00;;;;;;4984636;28;20481;-68
2022/03/06 06:33:23;;;;;;;;;;;0.40;73.10;;;;;;4985469;28;19945;-68
2022/03/06 06:35:50;;;;;;;;;;;0.50;73.10;;;;;;4986426;28;19957;-68
2022/03/06 06:38:17;;;;;;;;;;;0.40;73.20;;;;;;4985871;28;20009;-68
2022/03/06 06:40:44;;;;;;;;;;;0.40;73.10;;;;;;4984255;28;19930;-68
2022/03/06 06:43:10;;;;;;;;;;;0.50;73.20;;;;;;4985047;28;19941;-68
2022/03/06 06:45:37;;;;;;;;;;;0.40;73.20;;;;;;4986173;28;19934;-68
2022/03/06 06:48:04;;;;;;;;;;;0.40;73.20;;;;;;4983962;28;19941;-67
2022/03/06 06:50:30;;;;;;;;;;;0.40;73.30;;;;;;4986875;28;19930;-67
2022/03/06 06:52:57;;;;;;;;;;;0.40;73.30;;;;;;4985569;28;19941;-67
2022/03/06 06:55:25;;;;;;;;;;;0.40;73.20;;;;;;4986644;28;19929;-69
2022/03/06 06:57:51;;;;;;;;;;;0.40;73.30;;;;;;4978998;28;20409;-68
2022/03/06 07:00:18;;;;;;;;;;;0.40;73.30;;;;;;4989501;28;19930;-68
2022/03/06 07:02:46;;;;;;;;;;;0.40;73.40;;;;;;4984237;28;19936;-68
2022/03/06 07:05:13;;;;;;;;;;;0.40;73.40;;;;;;4985512;28;19987;-68
2022/03/06 07:07:39;;;;;;;;;;;0.40;73.50;;;;;;4986193;28;19941;-68
2022/03/06 07:10:07;;;;;;;;;;;0.40;73.40;;;;;;4984707;28;19933;-67
2022/03/06 07:12:42;;;;;;;;;;;0.40;73.50;;;;;;4984650;28;19953;-68
2022/03/06 07:15:09;;;;;;;;;;;0.40;73.60;;;;;;4984779;28;19937;-68
2022/03/06 07:17:35;;;;;;;;;;;0.40;73.70;;;;;;4985367;28;19953;-68
2022/03/06 07:20:02;;;;;;;;;;;0.40;73.80;;;;;;4985185;28;20358;-68
2022/03/06 07:22:29;;;;;;;;;;;0.40;73.70;;;;;;4985641;28;20389;-68
2022/03/06 07:24:55;;;;;;;;;;;0.40;73.70;;;;;;4985888;28;20509;-68
2022/03/06 07:27:22;;;;;;;;;;;0.40;73.90;;;;;;4979856;28;19930;-67
2022/03/06 07:29:50;;;;;;;;;;;0.40;73.90;;;;;;4985118;28;19930;-67
2022/03/06 07:32:16;;;;;;;;;;;0.40;73.90;;;;;;4979510;28;19944;-69
2022/03/06 07:34:43;;;;;;;;;;;0.40;73.90;;;;;;4981462;28;20029;-68
2022/03/06 07:37:09;;;;;;;;;;;0.30;73.90;;;;;;4979099;28;20413;-69
2022/03/06 07:39:36;;;;;;;;;;;0.30;74.00;;;;;;4984580;28;19930;-68
2022/03/06 07:42:03;;;;;;;;;;;0.30;73.90;;;;;;4984209;28;19937;-68
2022/03/06 07:44:29;;;;;;;;;;;0.40;74.10;;;;;;4985424;28;19934;-68
2022/03/06 07:46:57;;;;;;;;;;;0.40;74.10;;;;;;4982799;28;19937;-67
2022/03/06 07:49:24;;;;;;;;;;;0.40;74.20;;;;;;4983385;28;19930;-67
2022/03/06 07:51:50;;;;;;;;;;;0.40;74.20;;;;;;4985207;28;19930;-68
2022/03/06 07:54:17;;;;;;;;;;;0.40;74.10;;;;;;4984967;28;20387;-68
2022/03/06 07:56:44;;;;;;;;;;;0.30;74.10;;;;;;4985792;28;20277;-68
2022/03/06 07:59:10;;;;;;;;;;;0.40;74.10;;;;;;4985986;28;20303;-67
2022/03/06 08:01:37;;;;;;;;;;;0.30;74.00;;;;;;4984215;28;19934;-67
2022/03/06 08:04:05;;;;;;;;;;;0.40;74.10;;;;;;4983794;28;19930;-68
2022/03/06 08:06:32;;;;;;;;;;;0.40;74.10;;;;;;4984742;28;19929;-68
2022/03/06 08:08:58;;;;;;;;;;;0.40;74.20;;;;;;4984480;28;19938;-69
2022/03/06 08:11:25;;;;;;;;;;;0.40;74.20;;;;;;4984748;28;19930;-68
2022/03/06 08:13:51;;;;;;;;;;;0.40;74.00;;;;;;4982880;28;19929;-68
2022/03/06 08:16:18;;;;;;;;;;;0.40;74.00;;;;;;4984769;28;20409;-68
2022/03/06 08:18:44;;;;;;;;;;;0.40;74.00;;;;;;4984395;28;19934;-68
2022/03/06 08:21:12;;;;;;;;;;;0.40;74.10;;;;;;4985236;28;19941;-69
2022/03/06 08:23:39;;;;;;;;;;;0.40;74.20;;;;;;4985145;28;19941;-69
2022/03/06 08:26:05;;;;;;;;;;;0.40;74.10;;;;;;4983175;28;19934;-68
2022/03/06 08:28:32;;;;;;;;;;;0.40;74.00;;;;;;4984622;28;19934;-67
2022/03/06 08:30:59;;;;;;;;;;;0.50;74.10;;;;;;4983026;28;19930;-68
2022/03/06 08:33:25;;;;;;;;;;;0.50;74.20;;;;;;4981355;28;19929;-68
2022/03/06 08:35:52;;;;;;;;;;;0.50;74.10;;;;;;4984326;28;19930;-68
2022/03/06 08:38:20;;;;;;;;;;;0.50;74.10;;;;;;4982643;28;19934;-69
2022/03/06 08:40:47;;;;;;;;;;;0.60;74.20;;;;;;4981492;28;19930;-68
2022/03/06 08:43:13;;;;;;;;;;;0.60;74.10;;;;;;4982449;28;19933;-68
2022/03/06 08:45:40;;;;;;;;;;;0.60;74.10;;;;;;4984925;28;19937;-69
2022/03/06 08:48:07;;;;;;;;;;;0.60;74.10;;;;;;4981891;28;19937;-68
2022/03/06 08:50:33;;;;;;;;;;;0.70;74.10;;;;;;4985532;28;19988;-69
2022/03/06 08:53:00;;;;;;;;;;;0.70;73.90;;;;;;4984041;28;19929;-68
2022/03/06 08:55:28;;;;;;;;;;;0.80;73.70;;;;;;4984581;28;20397;-68
2022/03/06 08:57:55;;;;;;;;;;;0.80;73.40;;;;;;4982386;28;20486;-69
2022/03/06 09:00:22;;;;;;;;;;;0.90;73.30;;;;;;4988728;28;19934;-69
2022/03/06 09:02:48;;;;;;;;;;;0.90;73.20;;;;;;4981991;28;20299;-68
2022/03/06 09:05:15;;;;;;;;;;;1.00;73.00;;;;;;4986926;28;20269;-68
2022/03/06 09:07:41;;;;;;;;;;;1.10;72.90;;;;;;4988307;28;20303;-69
2022/03/06 09:10:09;;;;;;;;;;;1.10;72.80;;;;;;4985814;28;20024;-68
2022/03/06 09:12:37;;;;;;;;;;;1.10;72.80;;;;;;4987803;28;20370;-68
2022/03/06 09:15:04;;;;;;;;;;;1.20;72.70;;;;;;4987942;28;19967;-68
2022/03/06 09:17:31;;;;;;;;;;;1.20;72.40;;;;;;4986632;28;20390;-69
2022/03/06 09:19:57;;;;;;;;;;;1.30;72.30;;;;;;4987896;28;19953;-68
2022/03/06 09:22:24;;;;;;;;;;;1.30;72.20;;;;;;4987598;28;19937;-68
2022/03/06 09:24:50;;;;;;;;;;;1.30;72.00;;;;;;4987983;28;19940;-69
2022/03/06 09:27:17;;;;;;;;;;;1.40;71.80;;;;;;4987051;28;19930;-69
2022/03/06 09:29:45;;;;;;;;;;;1.50;71.70;;;;;;4988027;28;20310;-67
2022/03/06 09:32:12;;;;;;;;;;;1.50;71.70;;;;;;4984908;28;19936;-69
2022/03/06 09:34:38;;;;;;;;;;;1.50;71.50;;;;;;4988060;28;19930;-68
2022/03/06 09:37:05;;;;;;;;;;;1.60;71.40;;;;;;4982161;28;19937;-68
2022/03/06 09:39:31;;;;;;;;;;;1.60;71.10;;;;;;4986875;28;19925;-69
2022/03/06 09:41:58;;;;;;;;;;;1.70;70.90;;;;;;4984274;28;19936;-68
2022/03/06 09:44:25;;;;;;;;;;;1.80;70.70;;;;;;4986854;28;20225;-68
2022/03/06 09:46:56;;;;;;;;;;;1.80;70.40;;;;;;4986130;28;19930;-68
2022/03/06 09:49:23;;;;;;;;;;;1.90;70.10;;;;;;4984537;28;19930;-68
2022/03/06 09:51:49;;;;;;;;;;;2.00;69.90;;;;;;4987019;28;19936;-68
2022/03/06 09:54:16;;;;;;;;;;;2.00;69.60;;;;;;4986584;28;20301;-69
2022/03/06 09:56:44;;;;;;;;;;;2.10;69.40;;;;;;4986424;28;20578;-71
2022/03/06 09:59:11;;;;;;;;;;;2.20;69.20;;;;;;4989176;28;19933;-69
2022/03/06 10:01:37;;;;;;;;;;;2.20;68.80;;;;;;4986013;28;19932;-69
2022/03/06 10:04:19;;;;;;;;;;;2.30;68.80;;;;;;4985653;28;19929;-69
2022/03/06 10:06:57;;;;;;;;;;;2.40;68.60;;;;;;4984446;28;19949;-69
2022/03/06 10:09:24;;;;;;;;;;;2.40;68.10;;;;;;4988398;28;19953;-69
2022/03/06 10:11:51;;;;;;;;;;;2.50;67.70;;;;;;4985585;28;20335;-69
2022/03/06 10:14:32;;;;;;;;;;;2.60;67.90;;;;;;4986731;28;19984;-69
2022/03/06 10:17:08;;;;;;;;;;;2.60;67.50;;;;;;4983944;28;20394;-68
2022/03/06 10:19:47;;;;;;;;;;;2.70;67.10;;;;;;4980020;28;19936;-69
2022/03/06 10:22:15;;;;;;;;;;;2.80;67.20;;;;;;4985851;28;19936;-68
2022/03/06 10:24:46;;;;;;;;;;;2.90;66.90;;;;;;4987211;28;19937;-68
2022/03/06 10:27:12;;;;;;;;;;;2.90;66.30;;;;;;4977586;28;19930;-69
2022/03/06 10:29:39;;;;;;;;;;;3.00;66.10;;;;;;4987525;28;20370;-68
2022/03/06 10:32:07;;;;;;;;;;;3.00;65.80;;;;;;4983187;28;19933;-68
2022/03/06 10:34:37;;;;;;;;;;;3.10;65.20;;;;;;4986751;28;19976;-69
2022/03/06 10:37:04;;;;;;;;;;;3.20;64.70;;;;;;4978274;28;20241;-69
2022/03/06 10:39:42;;;;;;;;;;;3.20;64.70;;;;;;4986475;28;20370;-68
2022/03/06 10:42:10;;;;;;;;;;;3.30;64.20;;;;;;4983502;28;20012;-68
2022/03/06 10:44:43;;;;;;;;;;;3.30;63.90;;;;;;4984858;28;19937;-69
2022/03/06 10:47:09;;;;;;;;;;;3.40;63.90;;;;;;4984347;28;19936;-68
2022/03/06 10:49:36;;;;;;;;;;;3.40;64.10;;;;;;4985213;28;19940;-68
2022/03/06 10:52:13;;;;;;;;;;;3.40;64.20;;;;;;4985694;28;19933;-68
2022/03/06 10:54:49;;;;;;;;;;;3.50;64.00;;;;;;4986223;28;19930;-69
2022/03/06 10:57:16;;;;;;;;;;;3.50;63.70;;;;;;4986623;28;20437;-69
2022/03/06 10:59:43;;;;;;;;;;;3.50;63.00;;;;;;4987700;28;19929;-69
2022/03/06 11:02:10;;;;;;;;;;;3.50;62.90;;;;;;4983779;28;20182;-69
2022/03/06 11:04:37;;;;;;;;;;;3.50;62.80;;;;;;4986332;28;19936;-69
2022/03/06 11:07:04;;;;;;;;;;;3.60;62.90;;;;;;4984387;28;19974;-69
2022/03/06 11:09:31;;;;;;;;;;;3.60;62.90;;;;;;4986137;28;19937;-69
2022/03/06 11:11:59;;;;;;;;;;;3.60;62.20;;;;;;4980044;28;19941;-68
2022/03/06 11:14:26;;;;;;;;;;;3.70;61.90;;;;;;4986194;28;19934;-69
2022/03/06 11:16:53;;;;;;;;;;;3.70;61.70;;;;;;4984931;28;19933;-69
2022/03/06 11:19:20;;;;;;;;;;;3.70;62.00;;;;;;4984548;28;19930;-69
2022/03/06 11:21:50;;;;;;;;;;;3.80;61.90;;;;;;4985249;28;19930;-69
2022/03/06 11:24:19;;;;;;;;;;;3.90;61.40;;;;;;4986087;28;20017;-69
2022/03/06 11:27:01;;;;;;;;;;;3.90;61.10;;;;;;4984249;28;20342;-69
2022/03/06 11:29:50;;;;;;;;;;;3.90;60.30;;;;;;4985562;28;20024;-68
2022/03/06 11:32:23;;;;;;;;;;;4.00;60.00;;;;;;4979092;28;19934;-69
2022/03/06 11:34:52;;;;;;;;;;;4.10;59.60;;;;;;4985422;28;19930;-69
2022/03/06 11:37:19;;;;;;;;;;;4.20;59.50;;;;;;4980698;28;19933;-69
2022/03/06 11:39:46;;;;;;;;;;;4.30;59.70;;;;;;4983619;28;19930;-69
2022/03/06 11:42:33;;;;;;;;;;;4.40;59.20;;;;;;4982217;28;20390;-69
2022/03/06 11:45:00;;;;;;;;;;;4.50;58.50;;;;;;4979117;28;19933;-69
2022/03/06 11:47:39;;;;;;;;;;;4.60;58.70;;;;;;4983393;28;19934;-69
2022/03/06 11:50:07;;;;;;;;;;;4.70;58.80;;;;;;4984683;28;19937;-69
2022/03/06 11:52:35;;;;;;;;;;;4.80;59.50;;;;;;4981245;28;20394;-69
2022/03/06 11:55:02;;;;;;;;;;;4.90;58.90;;;;;;4985479;28;19929;-68
2022/03/06 11:57:35;;;;;;;;;;;5.00;58.70;;;;;;4981890;28;19929;-68
2022/03/06 12:00:16;;;;;;;;;;;5.00;58.40;;;;;;4988107;28;19956;-69
2022/03/06 12:02:46;;;;;;;;;;;5.10;58.00;;;;;;4983270;28;20402;-69
2022/03/06 12:05:12;;;;;;;;;;;5.20;58.00;;;;;;4985491;28;19985;-69
2022/03/06 12:07:40;;;;;;;;;;;5.20;57.90;;;;;;4984996;28;19930;-69
2022/03/06 12:10:09;;;;;;;;;;;5.30;57.70;;;;;;4984135;28;19937;-68
2022/03/06 12:12:36;;;;;;;;;;;5.30;57.60;;;;;;4981334;28;19930;-67
2022/03/06 12:15:12;;;;;;;;;;;5.30;57.60;;;;;;4985212;28;19934;-69
2022/03/06 12:17:41;;;;;;;;;;;5.30;57.60;;;;;;4983309;28;20402;-69
2022/03/06 12:20:11;;;;;;;;;;;5.30;57.70;;;;;;4984686;28;19930;-67
2022/03/06 12:22:44;;;;;;;;;;;5.30;57.80;;;;;;4978387;28;19937;-68
2022/03/06 12:25:17;;;;;;;;;;;5.30;58.00;;;;;;4983969;28;19940;-69
2022/03/06 12:28:04;;;;;;;;;;;5.30;57.80;;;;;;4979218;28;19929;-69
2022/03/06 12:30:31;;;;;;;;;;;5.30;57.30;;;;;;4982532;28;19930;-68
2022/03/06 12:33:19;;;;;;;;;;;5.30;57.40;;;;;;4980435;28;20402;-69
2022/03/06 12:35:46;;;;;;;;;;;5.40;57.40;;;;;;4979217;28;20473;-68
2022/03/06 12:38:21;;;;;;;;;;;5.40;57.60;;;;;;4984437;28;19933;-69
2022/03/06 12:40:48;;;;;;;;;;;5.50;57.90;;;;;;4983237;28;20552;-69
2022/03/06 12:43:19;;;;;;;;;;;5.50;57.20;;;;;;4984357;28;19930;-69
2022/03/06 12:45:46;;;;;;;;;;;5.60;57.00;;;;;;4987701;28;19937;-68
2022/03/06 12:48:16;;;;;;;;;;;5.70;57.10;;;;;;4984549;28;19938;-67
2022/03/06 12:50:43;;;;;;;;;;;5.80;56.80;;;;;;4988139;28;19937;-68
2022/03/06 12:53:09;;;;;;;;;;;5.80;56.40;;;;;;4988775;28;19962;-69
2022/03/06 12:55:36;;;;;;;;;;;5.90;56.40;;;;;;4989086;28;20386;-69
2022/03/06 12:58:03;;;;;;;;;;;6.00;55.40;;;;;;4986571;28;19933;-69
2022/03/06 13:00:31;;;;;;;;;;;6.10;55.50;;;;;;4992696;28;19929;-69
2022/03/06 13:02:58;;;;;;;;;;;6.10;56.00;;;;;;4986356;28;19930;-68
2022/03/06 13:05:26;;;;;;;;;;;6.10;55.70;;;;;;4988937;28;20025;-69
2022/03/06 13:07:53;;;;;;;;;;;6.20;55.40;;;;;;4988062;28;19941;-69
2022/03/06 13:10:22;;;;;;;;;;;6.20;55.70;;;;;;4988662;28;20540;-69
2022/03/06 13:12:51;;;;;;;;;;;6.20;55.20;;;;;;4986213;28;20501;-68
2022/03/06 13:15:18;;;;;;;;;;;6.20;55.40;;;;;;4987426;28;19992;-68
2022/03/06 13:17:45;;;;;;;;;;;6.20;56.00;;;;;;4987522;28;19930;-68
2022/03/06 13:20:13;;;;;;;;;;;6.20;55.90;;;;;;4988137;28;19930;-69
2022/03/06 13:22:41;;;;;;;;;;;6.20;55.70;;;;;;4981078;28;19929;-69
2022/03/06 13:25:09;;;;;;;;;;;6.20;55.00;;;;;;4987477;28;19930;-69
2022/03/06 13:27:37;;;;;;;;;;;6.20;54.00;;;;;;4980411;28;20437;-69
2022/03/06 13:30:05;;;;;;;;;;;6.30;55.00;;;;;;4987218;28;19930;-70
2022/03/06 13:32:33;;;;;;;;;;;6.30;55.10;;;;;;4984366;28;19941;-69
2022/03/06 13:35:00;;;;;;;;;;;6.40;54.90;;;;;;4987224;28;19937;-68
2022/03/06 13:37:37;;;;;;;;;;;6.40;54.80;;;;;;4981963;28;19930;-69
2022/03/06 13:40:10;;;;;;;;;;;6.50;54.80;;;;;;4986814;28;19936;-68
2022/03/06 13:42:37;;;;;;;;;;;6.50;54.70;;;;;;4984991;28;19964;-69
2022/03/06 13:45:04;;;;;;;;;;;6.50;54.40;;;;;;4987382;28;19936;-69
2022/03/06 13:47:38;;;;;;;;;;;6.60;54.30;;;;;;4985474;28;20318;-70
2022/03/06 13:50:05;;;;;;;;;;;6.70;54.40;;;;;;4986184;28;19937;-69
2022/03/06 13:52:33;;;;;;;;;;;6.70;54.10;;;;;;4986716;28;19941;-69
2022/03/06 13:55:05;;;;;;;;;;;6.80;53.20;;;;;;4987443;28;19929;-68
2022/03/06 13:57:31;;;;;;;;;;;6.80;53.40;;;;;;4985723;28;19930;-69
2022/03/06 13:59:58;;;;;;;;;;;6.90;53.50;;;;;;4988193;28;19936;-69
2022/03/06 14:02:25;;;;;;;;;;;6.90;53.80;;;;;;4983923;28;19934;-70
2022/03/06 14:04:52;;;;;;;;;;;6.90;54.00;;;;;;4987506;28;19996;-69
2022/03/06 14:07:24;;;;;;;;;;;7.00;53.60;;;;;;4986064;28;19937;-69
2022/03/06 14:09:51;;;;;;;;;;;7.00;53.50;;;;;;4984674;28;19929;-68
2022/03/06 14:12:20;;;;;;;;;;;7.00;53.70;;;;;;4986853;28;20554;-69
2022/03/06 14:14:47;;;;;;;;;;;7.00;54.20;;;;;;4986943;28;20370;-70
2022/03/06 14:17:15;;;;;;;;;;;7.00;54.20;;;;;;4984655;28;19929;-69
2022/03/06 14:19:41;;;;;;;;;;;7.00;54.40;;;;;;4986864;28;19972;-70
2022/03/06 14:22:09;;;;;;;;;;;7.00;54.70;;;;;;4986148;28;19937;-69
2022/03/06 14:24:36;;;;;;;;;;;7.00;54.20;;;;;;4979613;28;19936;-69
2022/03/06 14:27:02;;;;;;;;;;;7.00;53.90;;;;;;4985631;28;20032;-70
2022/03/06 14:29:31;;;;;;;;;;;6.90;53.90;;;;;;4986772;28;19933;-69
2022/03/06 14:31:58;;;;;;;;;;;6.90;53.60;;;;;;4981029;28;20057;-69
2022/03/06 14:34:26;;;;;;;;;;;7.00;54.10;;;;;;4986810;28;19937;-70